< < Back
Terminal Aerodrome Forecast


Current Version              Previous Versions:   1  2  3  4  5  6  7  8  9  

Terminal Aerodrome Forecast

990
FTUS42 KGSP 271733
TAFAND
TAF
KAND 271733Z 2718/2818 29012G22KT P6SM SCT060
     FM272300 31006KT P6SM SKC
     FM281100 00000KT P6SM SKC=

Latest METAR

120
SAUS70 KWBC 281900 RRX
MTRAND
METAR KAND 281856Z AUTO 23006KT 10SM CLR 07/M06 A3031 RMK AO2 SLP266
T00721061


USA.gov is the U.S. government's official web portal to all federal, state and local government web resources and services.